M I D A S
Marine Information and Data Acquisition System
Tripno 1911 of the Zeeleeuw from 2010-06-30 05:02:48 to 2010-06-30 15:26:22
Back to CruiseResearch ActivitiesStationsMapUnderway DataData graphs

EquipmentUnitsComment
TimeDGPSUTC
LatitudeDGPSDM.mWGS84
LongitudeDGPSDM.mWGS84
TemperatureSBE03/SBE38deg celciusITS90
ConductivitySBE21S/mITS90
SalinitySBE21 Practical Salinity Units
ChlorophylAChelsea fluorimeterg/lCalibrated in Aceton
Missing or incorrect values are displayed as -999
Sea surface data collected by the RV Zeeleeuw from 2010-06-30 04:56:18 to 2010-06-30 15:37:12
Time Latitude Longitude Temperature Conductivity Salinity ChlorophylA
2010-06-30 04:57:28 51°13.67 2°55.914 22.1243 0.083266 0.439207 -1.035392
2010-06-30 04:58:28 51°13.693 2°55.826 22.1382 0.082226 0.43356 -1.000568
2010-06-30 04:59:27 51°13.716 2°55.756 22.18 0.07848 0.413167 -1.000568
2010-06-30 05:00:28 51°13.71 2°55.738 22.1368 0.083474 0.440438 -1.035392
2010-06-30 05:01:27 51°13.721 2°55.724 22.1674 0.077231 0.406478 -1.035392
2010-06-30 05:02:26 51°13.785 2°55.668 22.0924 0.080873 0.426284 -1.035392
2010-06-30 05:03:25 51°13.882 2°55.591 22.1006 0.080457 0.424105 -1.035392
2010-06-30 05:04:24 51°13.991 2°55.51 22.1205 0.080769 0.425854 -1.000568
2010-06-30 05:05:24 51°14.103 2°55.425 22.1345 0.07952 0.41907 -1.000568
2010-06-30 05:06:25 51°14.235 2°55.324 22.1165 0.081705 0.431024 -1.035392
2010-06-30 05:07:24 51°14.373 2°55.213 22.1176 0.083579 0.441305 -1.000568
2010-06-30 05:08:24 51°14.532 2°55.075 22.0528 0.082746 0.436788 -1.000568
2010-06-30 05:09:24 51°14.718 2°54.88 22.1016 0.083995 0.443628 -1.000568
2010-06-30 05:10:24 51°14.897 2°54.663 22.1122 0.079937 0.421501 -1.035392
2010-06-30 05:11:24 51°15.074 2°54.446 22.0925 0.076295 0.401692 -1.035392
2010-06-30 05:12:24 51°15.26 2°54.241 22.0959 0.080041 0.422127 -1.035392
2010-06-30 05:13:24 51°15.446 2°54.038 22.1041 0.076503 0.402886 -1.000568
2010-06-30 05:14:24 51°15.626 2°53.822 22.1108 0.075358 0.396714 -1.035392
2010-06-30 05:15:24 51°15.795 2°53.586 22.1146 0.081185 0.428492 -1.000568
2010-06-30 05:16:24 51°15.974 2°53.367 22.0609 0.086909 0.459849 -1.035392
2010-06-30 05:17:24 51°16.192 2°53.252 22.1113 0.082954 0.438268 -1.000568
2010-06-30 05:18:24 51°16.416 2°53.156 22.0219 0.07952 0.419526 -1.000568
2010-06-30 05:19:24 51°16.639 2°53.059 22.0381 0.079624 0.420146 -1.000568
2010-06-30 05:20:24 51°16.859 2°52.953 22.0535 0.076919 0.405424 -1.035392
2010-06-30 05:21:24 51°17.075 2°52.828 22.0592 0.081497 0.430448 -1.000568
2010-06-30 05:22:24 51°17.282 2°52.669 22.0783 0.079728 0.42083 -1.035392
2010-06-30 05:23:24 51°17.477 2°52.479 22.0946 0.075878 0.399856 -1.035392
2010-06-30 05:24:24 51°17.667 2°52.283 22.1024 0.078896 0.41635 -1.000568
2010-06-30 05:25:24 51°17.854 2°52.076 22.1409 0.080145 0.423161 -1.035392
2010-06-30 05:26:24 51°18.041 2°51.871 22.1512 0.075046 0.395361 -1.035392
2010-06-30 05:27:24 51°18.228 2°51.667 22.124 0.079416 0.41919 -1.000568
2010-06-30 05:28:24 51°18.416 2°51.463 22.1421 0.076607 0.40386 -1.035392
2010-06-30 05:29:24 51°18.604 2°51.26 21.8089 0.075254 0.396493 -1.035392
2010-06-30 05:30:24 51°18.792 2°51.059 21.8097 0.071925 0.378398 -1.035392
2010-06-30 05:31:24 51°18.977 2°50.853 21.8183 0.078064 0.411814 -1.000568
2010-06-30 05:32:24 51°19.164 2°50.647 21.8423 0.074214 0.390856 -1.000568
2010-06-30 05:33:24 51°19.349 2°50.44 21.8106 0.072757 0.382966 -1.035392
2010-06-30 05:34:24 51°19.534 2°50.232 21.87 0.075983 0.400526 -1.000568
2010-06-30 05:35:24 51°19.721 2°50.024 21.8497 0.074422 0.39206 -1.000568
2010-06-30 05:36:24 51°19.907 2°49.817 21.8914 0.077543 0.409096 -1.000568
2010-06-30 05:37:24 51°20.097 2°49.614 21.8652 0.069532 0.365551 -1.035392
2010-06-30 05:38:24 51°20.286 2°49.412 21.913 0.085764 0.454133 -1.035392
2010-06-30 05:39:24 51°20.473 2°49.21 21.8976 0.072861 0.383678 -0.965744
2010-06-30 05:40:24 51°20.66 2°49.007 21.9288 0.069844 0.367328 -1.035392
2010-06-30 05:41:24 51°20.847 2°48.805 21.9487 0.082954 0.438834 -1.035392
2010-06-30 05:42:24 51°21.033 2°48.602 21.9556 0.077543 0.409297 -1.035392
2010-06-30 05:43:24 51°21.224 2°48.411 21.9885 0.077127 0.407063 -1.000568
2010-06-30 05:44:24 51°21.417 2°48.22 21.9897 0.080977 0.428137 -1.000568
2010-06-30 05:45:24 51°21.609 2°48.029 22.033 0.079416 0.41964 -1.000568
2010-06-30 05:46:24 51°21.8 2°47.836 22.0282 0.07848 0.414562 -1.000568
2010-06-30 05:47:24 51°21.996 2°47.646 22.0284 0.07515 0.396443 -1.035392
2010-06-30 05:48:24 51°22.192 2°47.458 22.0301 0.075878 0.400451 -0.965744
2010-06-30 05:49:24 51°22.389 2°47.272 22.0539 0.083058 0.439769 -1.035392
2010-06-30 05:50:24 51°22.588 2°47.094 22.0318 0.081289 0.43011 -1.035392
2010-06-30 05:51:24 51°22.774 2°46.894 22.089 0.075774 0.400024 -1.035392
2010-06-30 05:52:24 51°22.93 2°46.635 22.0995 0.079208 0.418818 -1.035392
2010-06-30 05:53:24 51°23.085 2°46.372 22.0965 0.073069 0.38537 -1.035392
2010-06-30 05:54:24 51°23.232 2°46.099 22.1138 0.079312 0.419491 -0.965744
2010-06-30 05:55:24 51°23.376 2°45.824 22.1087 0.074422 0.392824 -1.035392
2010-06-30 05:56:24 51°23.522 2°45.548 22.1142 0.082122 0.434984 -1.000568
2010-06-30 05:57:24 51°23.668 2°45.277 22.1384 0.076815 0.40599 -1.000568
2010-06-30 05:58:24 51°23.814 2°45.009 22.1407 0.07411 0.391266 -1.035392
2010-06-30 05:59:24 51°23.943 2°44.721 22.1436 0.069323 0.365249 -1.000568
2010-06-30 06:00:24 51°24.069 2°44.43 22.1592 0.076919 0.406683 -1.000568
2010-06-30 06:01:24 51°24.198 2°44.141 22.1632 0.069323 0.365333 -1.035392
2010-06-30 06:02:24 51°24.343 2°43.871 22.173 0.090447 0.481066 -1.035392
2010-06-30 06:03:24 51°24.522 2°43.655 22.1846 0.070988 0.374466 -0.965744
2010-06-30 06:04:24 51°24.707 2°43.45 22.1888 0.072029 0.380178 -1.000568
2010-06-30 06:05:24 51°24.887 2°43.234 22.207 0.074526 0.393838 -1.035392
2010-06-30 06:06:24 51°25.066 2°43.015 22.2061 0.080561 0.426917 -1.035392
2010-06-30 06:07:24 51°25.245 2°42.793 22.2171 0.084099 0.446384 -1.000568
2010-06-30 06:08:23 51°25.421 2°42.576 22.2201 0.076815 0.406489 -0.965744
2010-06-30 06:09:24 51°25.604 2°42.351 22.2304 0.070156 0.370198 -0.965744
2010-06-30 06:10:24 51°25.788 2°42.138 22.2356 0.074734 0.395212 -1.000568
2010-06-30 06:11:24 51°25.97 2°41.921 22.2456 0.069011 0.364044 -1.000568
2010-06-30 06:12:24 51°26.153 2°41.701 22.2476 0.075046 0.396997 -1.000568
2010-06-30 06:13:24 51°26.335 2°41.482 22.254 0.077231 0.408993 -0.965744
2010-06-30 06:14:24 51°26.518 2°41.264 22.2622 0.077335 0.409614 -1.035392
2010-06-30 06:15:24 51°26.701 2°41.049 22.2671 0.078376 0.41534 -1.000568
2010-06-30 06:16:24 51°26.885 2°40.835 22.274 0.072965 0.385797 -1.070216
2010-06-30 06:17:24 51°27.068 2°40.622 22.2825 0.076919 0.407441 -1.035392
2010-06-30 06:18:24 51°27.252 2°40.41 22.2865 0.068595 0.362074 -1.035392
2010-06-30 06:19:24 51°27.436 2°40.196 22.2933 0.072757 0.384756 -1.000568
2010-06-30 06:20:24 51°27.619 2°39.981 22.2986 0.078688 0.417263 -1.035392
2010-06-30 06:21:24 51°27.804 2°39.765 22.3048 0.080145 0.425317 -1.000568
2010-06-30 06:22:24 51°27.989 2°39.551 22.3093 0.07567 0.400836 -0.965744
2010-06-30 06:23:24 51°28.176 2°39.335 22.3154 0.076711 0.406578 -1.000568
2010-06-30 06:24:24 51°28.362 2°39.119 22.321 0.079833 0.423753 -1.000568
2010-06-30 06:25:24 51°28.548 2°38.901 22.3267 0.076295 0.404404 -1.000568
2010-06-30 06:26:23 51°28.727 2°38.685 22.3332 0.077751 0.412428 -1.000568
2010-06-30 06:27:24 51°28.914 2°38.466 22.3393 0.081289 0.431878 -1.035392
2010-06-30 06:28:24 51°29.098 2°38.25 22.3435 0.069844 0.369242 -1.000568
2010-06-30 06:29:24 51°29.28 2°38.037 22.3492 0.079104 0.419955 -1.000568
2010-06-30 06:30:24 51°29.464 2°37.824 22.3536 0.073798 0.390903 -1.000568
2010-06-30 06:31:24 51°29.647 2°37.609 22.3569 0.092008 0.491211 -0.965744
2010-06-30 06:32:24 51°29.828 2°37.392 22.3613 0.086596 0.46136 -1.000568
2010-06-30 06:33:24 51°30.01 2°37.174 22.3668 0.074942 0.397309 -1.000568
2010-06-30 06:34:24 51°30.204 2°36.98 22.3739 0.083475 0.444242 -1.000568
2010-06-30 06:35:24 51°30.423 2°36.862 22.3789 0.073485 0.389418 -1.000568
2010-06-30 06:36:24 51°30.646 2°36.753 22.3848 0.081289 0.432293 -1.035392
2010-06-30 06:37:24 51°30.878 2°36.693 22.3904 0.080977 0.430635 -1.000568
2010-06-30 06:38:24 51°31.112 2°36.649 22.3953 0.069948 0.370214 -0.965744
2010-06-30 06:39:24 51°31.348 2°36.665 22.3984 0.069636 0.368578 -1.000568
2010-06-30 06:40:24 51°31.583 2°36.69 22.4026 0.070572 0.37375 -1.035392
2010-06-30 06:41:24 51°31.814 2°36.715 22.4068 0.074942 0.397726 -1.000568
2010-06-30 06:42:23 51°32.041 2°36.74 22.4164 0.083266 0.44359 -1.000568
2010-06-30 06:43:24 51°32.278 2°36.759 22.4257 0.075879 0.402988 -1.000568
2010-06-30 06:44:24 51°32.51 2°36.778 22.4201 0.089302 0.47707 -1.000568
2010-06-30 06:45:24 51°32.741 2°36.803 22.433 0.074006 0.392799 -0.965744
2010-06-30 06:46:24 51°32.97 2°36.832 22.4388 0.069532 0.368367 -1.035392
2010-06-30 06:47:24 51°33.2 2°36.854 22.4307 0.078584 0.418042 -1.000568
2010-06-30 06:48:24 51°33.432 2°36.86 22.4439 0.077439 0.411765 -1.035392
2010-06-30 06:49:24 51°33.661 2°36.867 22.449 0.069428 0.367878 -1.000568
2010-06-30 06:50:24 51°33.893 2°36.867 22.4485 0.074526 0.395855 -1.035392
2010-06-30 06:51:24 51°34.124 2°36.855 22.4405 0.075462 0.401033 -1.035392
2010-06-30 06:52:24 51°34.353 2°36.842 22.4648 0.068075 0.36064 -1.000568
2010-06-30 06:53:24 51°34.582 2°36.829 22.4583 0.075566 0.401704 -1.035392
2010-06-30 06:54:24 51°34.812 2°36.816 22.4698 0.097316 0.52217 -1.000568
2010-06-30 06:55:24 51°35.04 2°36.795 22.4755 0.07567 0.402394 -1.000568
2010-06-30 06:56:24 51°35.263 2°36.713 22.4697 0.070884 0.376164 -1.035392
2010-06-30 06:57:24 51°35.487 2°36.621 22.4776 0.075566 0.401903 -1.000568
2010-06-30 06:58:24 51°35.711 2°36.534 22.4927 0.07026 0.372849 -1.035392
2010-06-30 06:59:24 51°35.932 2°36.44 22.479 0.075046 0.399162 -1.035392
2010-06-30 07:00:24 51°36.138 2°36.28 22.4885 0.072757 0.386644 -1.000568
2010-06-30 07:01:24 51°36.338 2°36.101 22.4892 0.084203 0.449786 -1.035392
2010-06-30 07:02:24 51°36.539 2°35.927 22.4962 0.079937 0.42627 -1.000568
2010-06-30 07:03:24 51°36.741 2°35.756 22.4993 0.085348 0.456251 -1.000568
2010-06-30 07:04:24 51°36.941 2°35.577 22.4946 0.075462 0.401724 -1.000568
2010-06-30 07:05:24 51°37.137 2°35.395 22.5112 0.071821 0.381785 -1.000568
2010-06-30 07:06:24 51°37.333 2°35.211 22.514 0.078168 0.416747 -1.000568
2010-06-30 07:07:24 51°37.528 2°35.026 22.5126 0.075566 0.402484 -1.000568
2010-06-30 07:08:24 51°37.724 2°34.845 22.5169 0.071925 0.382504 -1.070216
2010-06-30 07:09:24 51°37.92 2°34.659 22.5196 0.087741 0.469888 -1.000568
2010-06-30 07:10:24 51°38.102 2°34.436 22.5267 0.070364 0.374027 -1.035392
2010-06-30 07:11:23 51°38.238 2°34.151 22.5261 0.087533 0.468827 -1.035392
2010-06-30 07:12:24 51°38.357 2°33.834 22.5336 0.07567 0.403276 -1.035392
2010-06-30 07:13:24 51°38.47 2°33.52 22.5345 0.083683 0.44759 -1.000568
2010-06-30 07:14:24 51°38.588 2°33.209 22.5394 0.069324 0.368482 -1.000568
2010-06-30 07:15:24 51°38.7 2°32.917 22.545 0.080769 0.431577 -1.035392
2010-06-30 07:16:24 51°38.769 2°32.748 22.5567 0.086284 0.462176 -1.000568
2010-06-30 07:17:24 51°38.811 2°32.645 22.5593 0.075879 0.404636 -1.035392
2010-06-30 07:18:24 51°38.855 2°32.55 22.5597 0.070156 0.373192 -1.000568
2010-06-30 07:19:24 51°38.902 2°32.452 22.5577 0.083058 0.444402 -1.000568
2010-06-30 07:20:23 51°38.936 2°32.372 22.5511 0.079104 0.422545 -1.035392
2010-06-30 07:21:24 51°38.967 2°32.312 22.5592 0.085452 0.457734 -1.000568
2010-06-30 07:22:24 51°38.99 2°32.275 22.5642 0.074734 0.398466 -1.035392
2010-06-30 07:23:24 51°39.007 2°32.252 22.5627 0.071092 0.378452 -1.035392
2010-06-30 07:24:24 51°39.021 2°32.238 22.5678 0.081289 0.434706 -1.035392
2010-06-30 07:25:23 51°39.032 2°32.232 22.565 0.079833 0.426678 -1.035392
2010-06-30 07:26:27 51°39.021 2°32.252 22.5746 0.079312 0.423814 -1.000568
2010-06-30 07:27:27 51°38.998 2°32.259 22.5743 0.081914 0.438239 -1.000568
2010-06-30 07:28:26 51°39 2°32.261 22.5765 0.080873 0.432503 -1.000568
2010-06-30 07:29:25 51°39.003 2°32.26 22.5677 0.072757 0.387732 -1.000568
2010-06-30 07:30:25 51°39.009 2°32.259 22.5803 0.081185 0.434306 -1.035392
2010-06-30 07:31:23 51°39.016 2°32.258 22.5847 0.083891 0.449354 -1.000568
2010-06-30 07:32:24 51°39.02 2°32.259 22.5877 0.08847 0.474861 -1.000568
2010-06-30 07:33:24 51°39.009 2°32.263 22.589 0.076711 0.409692 -1.000568
2010-06-30 07:34:24 51°39.001 2°32.261 22.5926 0.082642 0.442573 -1.035392
2010-06-30 07:35:24 51°39.009 2°32.262 22.5857 0.071405 0.380539 -1.000568
2010-06-30 07:36:24 51°39.016 2°32.262 22.5965 0.085764 0.460028 -1.000568
2010-06-30 07:37:24 51°39.018 2°32.263 22.5981 0.08514 0.456601 -1.035392
2010-06-30 07:38:24 51°39.017 2°32.265 22.5987 0.073485 0.392144 -1.035392
2010-06-30 07:39:24 51°39.01 2°32.265 22.5952 0.079104 0.423238 -1.000568
2010-06-30 07:40:23 51°39.012 2°32.267 22.6056 0.075983 0.406025 -1.035392
2010-06-30 07:41:24 51°39.01 2°32.268 22.6052 0.073173 0.39057 -1.000568
2010-06-30 07:42:24 51°39.004 2°32.268 22.6027 0.077856 0.416484 -1.000568
2010-06-30 07:43:24 51°38.985 2°32.256 22.6047 0.082746 0.443663 -1.000568
2010-06-30 07:44:27 51°38.945 2°32.21 22.6137 0.081706 0.437955 -1.000568
2010-06-30 07:45:26 51°38.929 2°32.188 22.6159 0.080665 0.432249 -1.035392
2010-06-30 07:46:26 51°38.934 2°32.196 22.6135 0.078376 0.419606 -1.035392
2010-06-30 07:47:25 51°38.944 2°32.21 22.6195 0.081394 0.436407 -0.965744
2010-06-30 07:48:24 51°38.955 2°32.219 22.6091 0.079312 0.424901 -1.000568
2010-06-30 07:49:24 51°38.974 2°32.242 22.6145 0.077335 0.414 -1.000568
2010-06-30 07:50:24 51°38.987 2°32.291 22.6212 0.076087 0.40716 -1.035392
2010-06-30 07:51:24 51°38.988 2°32.332 22.6239 0.085972 0.462112 -1.000568
2010-06-30 07:52:24 51°38.992 2°32.381 22.6323 0.074214 0.396903 -0.965744
2010-06-30 07:53:24 51°39.02 2°32.41 22.6318 0.077543 0.415367 -1.000568
2010-06-30 07:54:23 51°39.042 2°32.414 22.6373 0.07952 0.426382 -0.965744
2010-06-30 07:55:24 51°39.055 2°32.412 22.6313 0.080457 0.431635 -1.000568
2010-06-30 07:56:23 51°39.059 2°32.408 22.6367 0.074838 0.400549 -1.035392
2010-06-30 07:57:24 51°39.061 2°32.407 22.6245 0.074526 0.398878 -1.000568
2010-06-30 07:58:24 51°39.062 2°32.406 22.6324 0.07411 0.396626 -1.000568
2010-06-30 07:59:24 51°39.064 2°32.405 22.6351 0.068075 0.36338 -1.000568
2010-06-30 08:00:24 51°39.065 2°32.403 22.6383 0.087637 0.471951 -1.000568
2010-06-30 08:01:24 51°39.065 2°32.406 22.6381 0.07848 0.421026 -1.035392
2010-06-30 08:02:24 51°39.065 2°32.409 22.6374 0.083058 0.446537 -1.000568
2010-06-30 08:03:24 51°39.065 2°32.412 22.642 0.08285 0.445448 -1.035392
2010-06-30 08:04:24 51°39.063 2°32.414 22.6441 0.083163 0.447251 -1.000568
2010-06-30 08:05:24 51°39.061 2°32.416 22.6397 0.074526 0.39934 -1.035392
2010-06-30 08:06:24 51°39.059 2°32.418 22.6366 0.074942 0.401715 -1.000568
2010-06-30 08:07:24 51°39.056 2°32.418 22.6357 0.079937 0.429507 -1.000568
2010-06-30 08:08:24 51°39.054 2°32.418 22.646 0.075879 0.407033 -1.000568
2010-06-30 08:09:24 51°39.052 2°32.418 22.6438 0.068595 0.366805 -1.035392
2010-06-30 08:10:24 51°39.051 2°32.415 22.6453 0.086388 0.465705 -1.000568
2010-06-30 08:11:24 51°39.05 2°32.413 22.6442 0.079 0.424574 -1.000568
2010-06-30 08:12:24 51°39.049 2°32.41 22.6485 0.076919 0.413079 -1.000568
2010-06-30 08:13:24 51°39.048 2°32.407 22.6475 0.083995 0.452552 -1.000568
2010-06-30 08:14:24 51°39.046 2°32.405 22.6441 0.075358 0.404542 -1.035392
2010-06-30 08:15:24 51°39.045 2°32.403 22.6393 0.072341 0.387881 -1.000568
2010-06-30 08:16:23 51°39.043 2°32.402 22.6513 0.075567 0.405831 -1.070216
2010-06-30 08:17:23 51°39.043 2°32.403 22.6405 0.078272 0.42094 -0.965744
2010-06-30 08:18:24 51°39.041 2°32.4 22.6446 0.078688 0.42333 -1.000568
2010-06-30 08:19:23 51°39.04 2°32.397 22.6509 0.083371 0.449527 -1.000568
2010-06-30 08:20:24 51°39.038 2°32.395 22.6492 0.075671 0.406683 -1.035392
2010-06-30 08:21:23 51°39.037 2°32.393 22.6378 0.078896 0.424709 -1.035392
2010-06-30 08:22:24 51°39.036 2°32.391 22.6499 0.075775 0.407409 -1.035392
2010-06-30 08:23:23 51°39.037 2°32.387 22.649 0.078584 0.42313 -1.035392
2010-06-30 08:24:24 51°39.034 2°32.385 22.6495 0.074422 0.400037 -1.035392
2010-06-30 08:25:23 51°39.032 2°32.385 22.6413 0.07411 0.398366 -1.035392
2010-06-30 08:26:24 51°39.03 2°32.385 22.6497 0.080873 0.436117 -1.000568
2010-06-30 08:27:24 51°39.025 2°32.384 22.6488 0.069532 0.373105 -1.035392
2010-06-30 08:28:23 51°39.021 2°32.382 22.6474 0.078168 0.42117 -1.000568
2010-06-30 08:29:24 51°39.016 2°32.384 22.6468 0.084723 0.457883 -1.000568
2010-06-30 08:30:23 51°39.012 2°32.385 22.6524 0.085244 0.460886 -1.000568
2010-06-30 08:31:24 51°39.007 2°32.385 22.647 0.076399 0.411528 -1.035392
2010-06-30 08:32:23 51°39.003 2°32.385 22.6492 0.072445 0.389594 -1.000568
2010-06-30 08:33:24 51°38.997 2°32.384 22.6582 0.071196 0.382727 -1.035392
2010-06-30 08:34:23 51°38.991 2°32.384 22.6526 0.079 0.426263 -1.035392
2010-06-30 08:35:24 51°38.987 2°32.382 22.6542 0.072653 0.39096 -1.035392
2010-06-30 08:36:23 51°38.982 2°32.382 22.6514 0.078064 0.421175 -1.035392
2010-06-30 08:37:23 51°38.977 2°32.38 22.6551 -999 -999 -3.020363
2010-06-30 08:38:24 51°38.973 2°32.375 22.6503 0.080041 0.43235 -1.035392
2010-06-30 08:39:23 51°38.969 2°32.37 22.649 0.075879 0.409166 -1.000568
2010-06-30 08:40:24 51°38.966 2°32.364 22.6551 0.076295 0.411553 -1.000568
2010-06-30 08:41:23 51°38.962 2°32.36 22.6577 0.080457 0.434871 -1.035392
2010-06-30 08:42:24 51°38.958 2°32.353 22.6537 0.082538 0.446605 -1.035392
2010-06-30 08:43:24 51°38.953 2°32.348 22.6568 0.085452 0.463035 -1.035392
2010-06-30 08:44:24 51°38.946 2°32.343 22.6477 0.07078 0.381089 -1.035392
2010-06-30 08:45:23 51°38.94 2°32.339 22.6559 0.078168 0.422357 -1.000568
2010-06-30 08:46:24 51°38.933 2°32.336 22.6531 0.076191 0.411382 -1.035392
2010-06-30 08:47:24 51°38.926 2°32.333 22.657 0.071509 0.385346 -1.035392
2010-06-30 08:48:24 51°38.918 2°32.33 22.658 0.077648 0.419674 -1.000568
2010-06-30 08:49:24 51°38.91 2°32.327 22.6598 0.077023 0.416249 -1.000568
2010-06-30 08:50:24 51°38.901 2°32.322 22.6585 0.077023 0.416309 -1.000568
2010-06-30 08:51:24 51°38.892 2°32.318 22.6598 0.079937 0.432693 -1.000568
2010-06-30 08:52:24 51°38.883 2°32.312 22.656 0.081081 0.439173 -1.000568
2010-06-30 08:53:24 51°38.873 2°32.306 22.6546 0.080041 0.433414 -1.035392
2010-06-30 08:54:23 51°38.864 2°32.298 22.6498 0.081706 0.442817 -1.000568
2010-06-30 08:55:24 51°38.855 2°32.289 22.6571 0.079625 0.431197 -1.000568
2010-06-30 08:56:24 51°38.846 2°32.279 22.6511 0.088574 0.481587 -0.965744
2010-06-30 08:57:24 51°38.837 2°32.268 22.6592 0.069428 0.374335 -1.000568
2010-06-30 08:58:24 51°38.828 2°32.256 22.659 0.082122 0.445381 -1.000568
2010-06-30 08:59:24 51°38.817 2°32.245 22.6538 0.072445 0.391228 -1.000568
2010-06-30 09:00:24 51°38.806 2°32.235 22.6588 0.076607 0.414547 -1.035392
2010-06-30 09:01:23 51°38.795 2°32.227 22.6548 0.07359 0.397718 -1.000568
2010-06-30 09:02:24 51°38.783 2°32.219 22.6495 0.076503 0.414076 -1.000568
2010-06-30 09:03:23 51°38.77 2°32.211 22.6539 0.07515 0.406551 -1.035392
2010-06-30 09:04:23 51°38.757 2°32.202 22.6524 0.087845 0.477973 -0.965744
2010-06-30 09:05:24 51°38.743 2°32.191 22.6516 0.074214 0.401448 -1.000568
2010-06-30 09:06:24 51°38.729 2°32.181 22.6546 0.077023 0.417228 -1.000568
2010-06-30 09:07:24 51°38.716 2°32.169 22.6517 0.071405 0.385859 -1.035392
2010-06-30 09:08:24 51°38.703 2°32.158 22.6486 0.079313 0.430205 -1.035392
2010-06-30 09:09:24 51°38.69 2°32.145 22.6451 0.078168 0.423827 -1.035392
2010-06-30 09:10:23 51°38.678 2°32.133 22.6514 0.071405 0.386024 -1.035392
2010-06-30 09:11:24 51°38.666 2°32.12 22.6533 0.079313 0.43037 -1.000568
2010-06-30 09:12:23 51°38.654 2°32.106 22.6517 0.073694 0.398925 -1.035392
2010-06-30 09:13:24 51°38.642 2°32.093 22.6455 0.075567 0.409452 -1.000568
2010-06-30 09:14:24 51°38.635 2°32.073 22.6501 0.080457 0.436983 -1.000568
2010-06-30 09:15:24 51°38.637 2°32.03 22.6443 0.085244 0.464018 -1.035392
2010-06-30 09:16:24 51°38.642 2°31.972 22.6422 0.07078 0.382848 -1.035392
2010-06-30 09:17:24 51°38.646 2°31.923 22.6487 0.066723 0.360269 -1.035392
2010-06-30 09:18:24 51°38.648 2°31.875 22.6513 0.066411 0.358577 -1.035392
2010-06-30 09:19:23 51°38.66 2°31.818 22.6441 0.06974 0.377188 -1.000568
2010-06-30 09:20:24 51°38.696 2°31.822 22.6472 0.072133 0.390669 -1.000568
2010-06-30 09:21:23 51°38.739 2°31.884 22.6444 0.07515 0.407593 -1.000568
2010-06-30 09:22:24 51°38.786 2°31.956 22.6444 0.071717 0.38842 -1.035392
2010-06-30 09:23:24 51°38.802 2°32.002 22.641 0.072965 0.395441 -1.000568
2010-06-30 09:24:24 51°38.792 2°32.035 22.6417 0.074526 0.404259 -1.035392
2010-06-30 09:25:24 51°38.806 2°32.109 22.6539 0.07411 0.40197 -0.965744
2010-06-30 09:26:23 51°38.917 2°32.19 22.6304 0.075671 0.410714 -1.000568
2010-06-30 09:27:24 51°39.046 2°32.268 22.6354 0.078376 0.425992 -1.035392
2010-06-30 09:28:23 51°39.086 2°32.311 22.639 0.073798 0.400309 -1.000568
2010-06-30 09:29:24 51°39.082 2°32.336 22.6454 0.077648 0.421976 -1.000568
2010-06-30 09:30:24 51°39.073 2°32.337 22.64 0.07463 0.405024 -0.965744
2010-06-30 09:31:24 51°39.064 2°32.337 22.6402 0.076295 0.414392 -1.000568
2010-06-30 09:32:23 51°39.054 2°32.331 22.6423 0.076503 0.415594 -1.000568
2010-06-30 09:33:24 51°39.042 2°32.325 22.6343 0.074838 0.406282 -1.000568
2010-06-30 09:34:24 51°39.031 2°32.323 22.6347 0.071093 0.385302 -1.000568
2010-06-30 09:35:23 51°39.017 2°32.32 22.6372 0.075671 0.411009 -1.000568
2010-06-30 09:36:24 51°39 2°32.315 22.6352 0.076191 0.413979 -1.035392
2010-06-30 09:37:23 51°38.983 2°32.299 22.6335 0.082226 0.448012 -1.000568
2010-06-30 09:38:24 51°38.968 2°32.26 22.6381 0.079209 0.431 -1.000568
2010-06-30 09:39:23 51°38.968 2°32.265 22.6419 0.070572 0.382542 -1.035392
2010-06-30 09:40:24 51°38.995 2°32.24 22.6269 0.072861 0.395375 -1.000568
2010-06-30 09:41:24 51°39.005 2°32.221 22.6345 0.078064 0.424683 -1.035392
2010-06-30 09:42:23 51°39.007 2°32.226 22.6214 0.07078 0.383805 -1.000568
2010-06-30 09:43:24 51°39.009 2°32.26 22.6338 0.078792 0.428896 -1.035392
2010-06-30 09:44:24 51°39.014 2°32.262 22.6305 0.081394 0.443533 -1.000568
2010-06-30 09:45:24 51°39.014 2°32.268 22.6333 0.074838 0.406652 -1.000568
2010-06-30 09:46:23 51°39.01 2°32.275 22.63 0.071717 0.389163 -1.035392
2010-06-30 09:47:24 51°38.996 2°32.264 22.6266 0.073382 0.398522 -1.000568
2010-06-30 09:48:24 51°38.979 2°32.242 22.6285 0.078688 0.428378 -1.035392
2010-06-30 09:49:24 51°38.96 2°32.222 22.625 0.080873 0.440717 -1.000568
2010-06-30 09:50:23 51°38.942 2°32.211 22.6279 0.072029 0.39097 -1.035392
2010-06-30 09:51:24 51°38.946 2°32.221 22.6347 0.070052 0.379927 -0.965744
2010-06-30 09:52:24 51°38.995 2°32.228 22.6182 0.080249 0.437214 -1.000568
2010-06-30 09:53:23 51°39.026 2°32.27 22.6203 0.081706 0.445503 -1.035392
2010-06-30 09:54:24 51°39.023 2°32.287 22.6189 0.072029 0.391038 -1.000568
2010-06-30 09:55:24 51°39.008 2°32.281 22.6208 0.083891 0.457886 -1.035392
2010-06-30 09:56:24 51°38.987 2°32.264 22.62 0.092633 0.507487 -1.000568
2010-06-30 09:57:23 51°38.968 2°32.246 22.6162 0.076399 0.415606 -1.035392
2010-06-30 09:58:24 51°38.948 2°32.233 22.614 0.073173 0.397468 -1.035392
2010-06-30 09:59:23 51°38.927 2°32.225 22.6109 0.07026 0.381153 -1.000568
2010-06-30 10:00:23 51°38.903 2°32.227 22.609 0.070156 0.380576 -1.000568
2010-06-30 10:01:24 51°38.851 2°32.259 22.6143 0.07359 0.399849 -1.035392
2010-06-30 10:02:24 51°38.732 2°32.392 22.5915 0.072757 0.395163 -1.035392
2010-06-30 10:03:24 51°38.585 2°32.571 22.5953 0.078896 0.429702 -0.965744
2010-06-30 10:04:24 51°38.436 2°32.756 22.5886 0.067763 0.367195 -0.965744
2010-06-30 10:05:24 51°38.286 2°32.943 22.5959 0.075671 0.411561 -1.000568
2010-06-30 10:06:23 51°38.124 2°33.151 22.5955 0.083787 0.457363 -1.000568
2010-06-30 10:07:24 51°37.957 2°33.372 22.5984 0.083995 0.458548 -1.000568
2010-06-30 10:08:23 51°37.788 2°33.599 22.5865 0.082851 0.452095 -1.035392
2010-06-30 10:09:24 51°37.611 2°33.836 22.592 0.073069 0.396966 -1.000568
2010-06-30 10:10:24 51°37.436 2°34.065 22.5937 0.079313 0.432098 -1.035392
2010-06-30 10:11:23 51°37.266 2°34.285 22.5879 0.076815 0.418023 -1.000568
2010-06-30 10:12:24 51°37.067 2°34.452 22.5965 0.082538 0.450329 -1.000568
2010-06-30 10:13:23 51°36.832 2°34.496 22.6081 0.07359 0.399888 -1.000568
2010-06-30 10:14:23 51°36.591 2°34.529 22.6002 0.092633 0.507584 -1.035392
2010-06-30 10:15:23 51°36.351 2°34.559 22.6063 0.07463 0.405735 -1.035392
2010-06-30 10:16:23 51°36.11 2°34.593 22.601 0.074006 0.40222 -1.000568
2010-06-30 10:17:23 51°35.867 2°34.626 22.597 0.081706 0.445631 -1.000568
2010-06-30 10:18:24 51°35.62 2°34.658 22.6049 0.091904 0.503456 -1.000568
2010-06-30 10:19:24 51°35.377 2°34.688 22.5939 0.080665 0.439767 -1.000568
2010-06-30 10:20:23 51°35.138 2°34.721 22.6078 0.067659 0.366695 -1.035392
2010-06-30 10:21:24 51°34.901 2°34.811 22.6023 0.082122 0.448048 -1.000568
2010-06-30 10:22:23 51°34.674 2°34.904 22.6024 0.086389 0.472218 -1.000568
2010-06-30 10:23:23 51°34.443 2°34.999 22.6005 0.071613 0.388884 -1.000568
2010-06-30 10:24:23 51°34.216 2°35.11 22.5945 0.072341 0.39299 -1.000568
2010-06-30 10:25:24 51°33.987 2°35.23 22.5983 0.079209 0.431649 -1.000568
2010-06-30 10:26:23 51°33.765 2°35.346 22.6042 0.073174 0.397677 -1.035392
2010-06-30 10:27:24 51°33.546 2°35.493 22.5963 0.088574 0.484664 -1.000568
2010-06-30 10:28:24 51°33.328 2°35.645 22.6079 0.072861 0.395924 -1.000568
2010-06-30 10:29:23 51°33.112 2°35.794 22.6084 0.07848 0.427567 -1.035392
2010-06-30 10:30:24 51°32.888 2°35.949 22.5891 0.082642 0.45107 -1.035392
2010-06-30 10:31:23 51°32.672 2°36.097 22.6047 0.070468 0.382496 -1.000568
2010-06-30 10:32:23 51°32.428 2°36.143 22.6165 0.096483 0.529678 -1.000568
2010-06-30 10:33:23 51°32.18 2°36.116 22.6139 0.076919 0.418736 -1.000568
2010-06-30 10:34:24 51°31.93 2°36.036 22.6061 0.075879 0.412877 -1.000568
2010-06-30 10:35:23 51°31.691 2°35.921 22.6163 0.08514 0.465215 -1.000568
2010-06-30 10:36:23 51°31.449 2°35.809 22.614 0.070052 0.380193 -1.000568
2010-06-30 10:37:24 51°31.202 2°35.698 22.6155 0.073798 0.401236 -1.000568
2010-06-30 10:38:23 51°30.964 2°35.579 22.6155 0.080041 0.436424 -1.000568
2010-06-30 10:39:23 51°30.723 2°35.456 22.6218 0.073382 0.398916 -1.000568
2010-06-30 10:40:23 51°30.482 2°35.338 22.6193 0.071197 0.386654 -1.000568
2010-06-30 10:41:24 51°30.236 2°35.219 22.6284 0.07463 0.405943 -1.000568
2010-06-30 10:42:23 51°30 2°35.098 22.618 0.087013 0.475904 -1.000568
2010-06-30 10:43:23 51°29.764 2°34.946 22.6221 0.075879 0.412983 -0.965744
2010-06-30 10:44:23 51°29.528 2°34.794 22.6278 0.084515 0.461767 -1.000568
2010-06-30 10:45:23 51°29.292 2°34.643 22.6294 0.077231 0.420609 -1.035392
2010-06-30 10:46:23 51°29.056 2°34.495 22.6262 0.072549 0.394278 -1.000568
2010-06-30 10:47:24 51°28.817 2°34.341 22.6233 0.08233 0.449441 -1.000568
2010-06-30 10:48:24 51°28.584 2°34.191 22.6239 0.078064 0.425363 -1.035392
2010-06-30 10:49:23 51°28.354 2°34.041 22.6346 0.085868 0.469532 -1.035392
2010-06-30 10:50:24 51°28.116 2°33.887 22.6172 0.080665 0.440085 -1.000568
2010-06-30 10:51:23 51°27.886 2°33.739 22.6234 0.073069 0.397289 -1.000568
2010-06-30 10:52:23 51°27.653 2°33.587 22.6328 0.077231 0.420737 -1.000568
2010-06-30 10:53:23 51°27.417 2°33.434 22.6463 0.07796 0.424865 -1.035392
2010-06-30 10:54:23 51°27.183 2°33.278 22.6349 0.085244 0.466067 -1.035392
2010-06-30 10:55:24 51°26.945 2°33.119 22.6381 0.076815 0.418445 -1.000568
2010-06-30 10:56:24 51°26.71 2°32.964 22.6442 0.083475 0.456094 -1.000568
2010-06-30 10:57:24 51°26.475 2°32.808 22.6371 0.080561 0.439631 -1.000568
2010-06-30 10:58:23 51°26.244 2°32.656 22.6515 0.076399 0.416199 -1.000568
2010-06-30 10:59:23 51°26.01 2°32.504 22.6599 0.077648 0.423294 -1.035392
2010-06-30 11:00:23 51°25.777 2°32.347 22.6503 0.075671 0.4122 -1.000568
2010-06-30 11:01:23 51°25.544 2°32.192 22.663 0.08514 0.465799 -1.000568
2010-06-30 11:02:23 51°25.311 2°32.039 22.6606 0.076087 0.414659 -1.035392
2010-06-30 11:03:24 51°25.076 2°31.892 22.6611 0.077752 0.424119 -1.035392
2010-06-30 11:04:24 51°24.914 2°31.764 22.6785 0.079313 0.432985 -1.035392
2010-06-30 11:05:23 51°24.864 2°31.655 22.7018 0.080041 0.437195 -1.000568
2010-06-30 11:06:24 51°24.845 2°31.583 22.6953 0.080145 0.437833 -1.000568
2010-06-30 11:07:23 51°24.837 2°31.543 22.6921 0.075671 0.412597 -1.000568
2010-06-30 11:08:23 51°24.831 2°31.51 22.6877 0.07515 0.409689 -1.000568
2010-06-30 11:09:23 51°24.825 2°31.486 22.6953 0.069428 0.377508 -1.035392
2010-06-30 11:10:23 51°24.813 2°31.466 22.6962 0.072861 0.39683 -1.035392
2010-06-30 11:11:23 51°24.8 2°31.45 22.6895 0.078064 0.42619 -1.035392
2010-06-30 11:12:24 51°24.787 2°31.435 22.6858 0.071821 0.390975 -1.000568
2010-06-30 11:13:23 51°24.775 2°31.419 22.6929 0.076191 0.415585 -1.000568
2010-06-30 11:14:23 51°24.765 2°31.402 22.6919 0.074942 0.408516 -1.035392
2010-06-30 11:15:23 51°24.755 2°31.386 22.6903 0.071197 0.387402 -1.035392
2010-06-30 11:16:23 51°24.747 2°31.369 22.6923 0.083267 0.455538 -1.035392
2010-06-30 11:17:23 51°24.739 2°31.352 22.691 0.074526 0.406098 -1.035392
2010-06-30 11:18:23 51°24.732 2°31.334 22.6866 0.075046 0.409017 -1.035392
2010-06-30 11:19:24 51°24.725 2°31.316 22.6813 0.072653 0.395526 -1.035392
2010-06-30 11:20:23 51°24.718 2°31.298 22.6808 0.083683 0.457825 -1.000568
2010-06-30 11:21:23 51°24.711 2°31.278 22.6943 0.07026 0.382036 -1.000568
2010-06-30 11:22:23 51°24.702 2°31.257 22.6907 0.074942 0.408378 -1.000568
2010-06-30 11:23:23 51°24.693 2°31.239 22.6984 0.072757 0.396054 -1.000568
2010-06-30 11:24:23 51°24.683 2°31.223 22.6967 0.081706 0.446562 -1.035392
2010-06-30 11:25:23 51°24.673 2°31.208 22.6863 0.080977 0.442431 -1.000568
2010-06-30 11:26:23 51°24.661 2°31.193 22.6984 0.071613 0.389593 -1.000568
2010-06-30 11:27:23 51°24.65 2°31.179 22.6911 0.083059 0.454204 -1.035392
2010-06-30 11:28:24 51°24.638 2°31.165 22.6996 0.072965 0.397174 -1.035392
2010-06-30 11:29:23 51°24.627 2°31.151 22.6919 0.076087 0.414725 -1.035392
2010-06-30 11:30:23 51°24.615 2°31.138 22.6969 0.073694 0.401196 -1.035392
2010-06-30 11:31:23 51°24.603 2°31.124 22.6812 0.072549 0.3947 -1.000568
2010-06-30 11:32:23 51°24.593 2°31.109 22.6999 0.077127 0.42042 -1.035392
2010-06-30 11:33:23 51°24.582 2°31.097 22.7017 0.079729 0.435024 -0.965744
2010-06-30 11:34:23 51°24.574 2°31.084 22.6916 0.083267 0.454952 -1.000568
2010-06-30 11:35:24 51°24.567 2°31.072 22.7009 0.073902 0.402008 -1.000568
2010-06-30 11:36:23 51°24.559 2°31.058 22.6994 0.071197 0.386728 -1.000568
2010-06-30 11:37:23 51°24.552 2°31.044 22.7014 0.072549 0.394246 -1.000568
2010-06-30 11:38:23 51°24.544 2°31.031 22.6994 0.068075 0.369105 -1.000568
2010-06-30 11:39:23 51°24.569 2°31.017 22.6872 0.074214 0.403479 -1.000568
2010-06-30 11:40:23 51°24.621 2°31.143 22.7073 0.074422 0.404649 -1.000568
2010-06-30 11:41:24 51°24.699 2°31.309 22.699 0.072965 0.396382 -1.000568
2010-06-30 11:42:24 51°24.789 2°31.459 22.6942 0.080249 0.437347 -1.000568
2010-06-30 11:43:23 51°24.835 2°31.56 22.7123 0.075775 0.412113 -1.000568
2010-06-30 11:44:24 51°24.87 2°31.629 22.7108 0.080353 0.437851 -1.035392
2010-06-30 11:45:23 51°24.894 2°31.685 22.6978 0.074318 0.403839 -1.000568
2010-06-30 11:46:23 51°24.904 2°31.733 22.7148 0.077336 0.420805 -1.035392
2010-06-30 11:47:23 51°24.9 2°31.739 22.7144 0.081706 0.445389 -1.000568
2010-06-30 11:48:23 51°24.892 2°31.728 22.7232 0.080873 0.440639 -1.035392
2010-06-30 11:49:27 51°24.876 2°31.681 22.7159 0.07848 0.427089 -1.000568
2010-06-30 11:50:27 51°24.861 2°31.621 22.7041 0.073278 0.397804 -1.000568
2010-06-30 11:51:26 51°24.848 2°31.58 22.7219 0.074006 0.401854 -1.000568
2010-06-30 11:52:25 51°24.845 2°31.622 22.7401 0.074318 0.403581 -1.000568
2010-06-30 11:53:25 51°24.88 2°31.741 22.7192 0.080457 0.43808 -1.000568
2010-06-30 11:54:24 51°24.911 2°31.803 22.7204 0.081602 0.444466 -0.965744
2010-06-30 11:55:23 51°24.929 2°31.847 22.7273 0.076919 0.418061 -1.000568
2010-06-30 11:56:23 51°24.938 2°31.871 22.7208 0.076295 0.414511 -1.000568
2010-06-30 11:57:23 51°24.945 2°31.886 22.7233 0.076711 0.416804 -1.000568
2010-06-30 11:58:23 51°24.951 2°31.895 22.7364 0.078168 0.424971 -1.035392
2010-06-30 11:59:23 51°24.958 2°31.899 22.7413 0.077023 0.418492 -1.000568
2010-06-30 12:00:23 51°24.968 2°31.907 22.7299 0.082018 0.44658 -1.035392
2010-06-30 12:01:23 51°24.966 2°31.948 22.704 0.085244 0.464761 -1.000568
2010-06-30 12:02:23 51°24.928 2°31.982 22.7201 0.077231 0.419555 -1.000568
2010-06-30 12:03:23 51°24.858 2°31.985 22.729 0.08285 0.451133 -1.000568
2010-06-30 12:04:23 51°24.757 2°31.894 22.7475 0.075463 0.409559 -0.965744
2010-06-30 12:05:23 51°24.666 2°31.797 22.7115 0.086389 0.471054 -1.000568
2010-06-30 12:06:23 51°24.631 2°31.695 22.7441 0.08285 0.45109 -1.035392
2010-06-30 12:07:23 51°24.619 2°31.626 22.7397 0.074422 0.403618 -1.035392
2010-06-30 12:08:23 51°24.611 2°31.589 22.7466 0.07848 0.42638 -1.000568
2010-06-30 12:09:23 51°24.605 2°31.571 22.7484 0.079313 0.431056 -1.000568
2010-06-30 12:10:23 51°24.599 2°31.56 22.7487 0.077023 0.418165 -1.000568
2010-06-30 12:11:23 51°24.592 2°31.555 22.7421 0.073382 0.397703 -1.000568
2010-06-30 12:12:23 51°24.583 2°31.551 22.7513 0.079625 0.43273 -1.000568
2010-06-30 12:13:24 51°24.571 2°31.547 22.7502 0.084724 0.461458 -1.035392
2010-06-30 12:14:23 51°24.56 2°31.542 22.7489 0.079208 0.430347 -1.000568
2010-06-30 12:15:23 51°24.547 2°31.537 22.7519 0.078688 0.427401 -1.000568
2010-06-30 12:16:23 51°24.538 2°31.533 22.7492 0.074318 0.402842 -1.035392
2010-06-30 12:17:23 51°24.529 2°31.527 22.7463 0.087429 0.476635 -1.035392
2010-06-30 12:18:23 51°24.522 2°31.524 22.7495 0.090447 0.493704 -1.035392
2010-06-30 12:19:23 51°24.517 2°31.521 22.747 0.078376 0.425544 -1.000568
2010-06-30 12:20:23 51°24.51 2°31.517 22.7523 0.072341 0.391678 -1.000568
2010-06-30 12:21:23 51°24.507 2°31.515 22.7465 0.082538 0.448913 -1.035392
2010-06-30 12:22:23 51°24.503 2°31.511 22.7448 0.081914 0.445366 -1.035392
2010-06-30 12:23:23 51°24.496 2°31.506 22.7377 0.077648 0.421337 -0.965744
2010-06-30 12:24:23 51°24.491 2°31.505 22.7515 0.090551 0.494112 -1.035392
2010-06-30 12:25:23 51°24.485 2°31.506 22.748 0.072653 0.393299 -1.000568
2010-06-30 12:26:23 51°24.479 2°31.509 22.7466 0.079104 0.42946 -1.035392
2010-06-30 12:27:23 51°24.472 2°31.512 22.7537 0.082746 0.449949 -1.000568
2010-06-30 12:28:23 51°24.464 2°31.515 22.7572 0.070364 0.380469 -1.000568
2010-06-30 12:29:23 51°24.457 2°31.517 22.7577 0.082122 0.446389 -1.000568
2010-06-30 12:30:24 51°24.451 2°31.52 22.7536 0.07359 0.39847 -1.035392
2010-06-30 12:31:24 51°24.445 2°31.523 22.755 0.080249 0.43582 -1.000568
2010-06-30 12:32:24 51°24.441 2°31.53 22.7543 0.078168 0.424097 -1.070216
2010-06-30 12:33:24 51°24.434 2°31.534 22.7536 0.083163 0.452186 -1.035392
2010-06-30 12:34:23 51°24.428 2°31.539 22.7523 0.07744 0.419975 -1.035392
2010-06-30 12:35:23 51°24.423 2°31.544 22.7603 0.078168 0.42405 -1.000568
2010-06-30 12:36:23 51°24.419 2°31.551 22.7568 0.074734 0.404776 -1.000568
2010-06-30 12:37:23 51°24.415 2°31.558 22.7567 0.077544 0.420505 -1.000568
2010-06-30 12:38:23 51°24.411 2°31.565 22.757 0.083579 0.454431 -0.965744
2010-06-30 12:39:23 51°24.407 2°31.572 22.749 0.075983 0.411706 -1.000568
2010-06-30 12:40:23 51°24.404 2°31.581 22.7564 0.076399 0.414039 -1.000568
2010-06-30 12:41:23 51°24.401 2°31.59 22.7536 0.071301 0.385486 -1.000568
2010-06-30 12:42:23 51°24.396 2°31.597 22.7547 0.075254 0.407592 -1.000568
2010-06-30 12:43:23 51°24.393 2°31.606 22.7555 0.081394 0.442055 -1.000568
2010-06-30 12:44:23 51°24.391 2°31.618 22.7541 0.084515 0.459607 -1.000568
2010-06-30 12:45:23 51°24.389 2°31.629 22.7656 0.076711 0.415716 -0.965744
2010-06-30 12:46:23 51°24.388 2°31.644 22.7501 0.077544 0.420365 -1.000568
2010-06-30 12:47:23 51°24.403 2°31.631 22.7726 0.069532 0.375561 -1.035392
2010-06-30 12:48:23 51°24.4 2°31.544 22.7498 0.080041 0.434373 -1.035392
2010-06-30 12:49:23 51°24.391 2°31.423 22.7552 0.079417 0.430947 -1.035392
2010-06-30 12:50:23 51°24.419 2°31.355 22.7678 0.073278 0.396471 -1.000568
2010-06-30 12:51:23 51°24.447 2°31.324 22.7647 0.079417 0.430851 -1.000568
2010-06-30 12:52:23 51°24.462 2°31.32 22.7513 0.080873 0.439024 -1.035392
2010-06-30 12:53:23 51°24.471 2°31.326 22.7667 0.081706 0.443706 -1.000568
2010-06-30 12:54:23 51°24.476 2°31.343 22.7584 0.080977 0.439616 -1.000568
2010-06-30 12:55:23 51°24.477 2°31.364 22.7714 0.074838 0.405159 -1.000568
2010-06-30 12:56:24 51°24.48 2°31.384 22.7699 0.076919 0.41681 -1.000568
2010-06-30 12:57:23 51°24.483 2°31.403 22.7685 0.082018 0.445448 -1.000568
2010-06-30 12:58:23 51°24.487 2°31.423 22.7595 0.07515 0.406887 -1.035392
2010-06-30 12:59:23 51°24.488 2°31.443 22.7666 0.072237 0.390581 -1.035392
2010-06-30 13:00:23 51°24.488 2°31.465 22.7571 0.077856 0.422036 -1.035392
2010-06-30 13:01:23 51°24.487 2°31.488 22.7665 0.078792 0.427291 -1.000568
2010-06-30 13:02:24 51°24.486 2°31.511 22.7684 0.079729 0.432543 -1.000568
2010-06-30 13:03:23 51°24.484 2°31.533 22.7638 0.080041 0.434296 -1.000568
2010-06-30 13:04:23 51°24.482 2°31.554 22.77 0.075879 0.410933 -1.000568
2010-06-30 13:05:23 51°24.481 2°31.575 22.765 0.07796 0.422599 -1.000568
2010-06-30 13:06:23 51°24.48 2°31.596 22.7706 0.07796 0.422599 -1.000568
2010-06-30 13:07:23 51°24.48 2°31.617 22.7653 0.080665 0.437784 -1.000568
2010-06-30 13:08:23 51°24.48 2°31.639 22.7668 0.078792 0.42725 -0.965744
2010-06-30 13:09:23 51°24.481 2°31.66 22.7671 0.083891 0.455914 -1.035392
2010-06-30 13:10:23 51°24.483 2°31.682 22.7687 0.081186 0.440674 -1.000568
2010-06-30 13:11:23 51°24.484 2°31.706 22.7775 0.078896 0.42782 -1.000568
2010-06-30 13:12:23 51°24.485 2°31.73 22.7634 0.080041 0.43422 -1.000568
2010-06-30 13:13:23 51°24.486 2°31.757 22.773 0.083059 0.451197 -1.000568
2010-06-30 13:14:23 51°24.485 2°31.784 22.7684 0.078168 0.423686 -1.000568
2010-06-30 13:15:23 51°24.485 2°31.811 22.7695 0.078272 0.42427 -1.035392
2010-06-30 13:16:23 51°24.487 2°31.839 22.7649 0.074526 0.403277 -1.035392
2010-06-30 13:17:23 51°24.517 2°31.886 22.7683 0.072133 0.389882 -1.000568
2010-06-30 13:18:24 51°24.614 2°31.953 22.763 0.085868 0.466954 -1.000568
2010-06-30 13:19:23 51°24.736 2°32.001 22.7653 0.083579 0.454047 -1.000568
2010-06-30 13:20:23 51°24.857 2°32.051 22.7717 0.076607 0.414909 -0.965744
2010-06-30 13:21:23 51°24.933 2°32.054 22.7682 0.086909 0.472809 -1.035392
2010-06-30 13:22:23 51°24.984 2°32.051 22.7789 0.074006 0.400316 -1.000568
2010-06-30 13:23:23 51°25.023 2°32.053 22.7785 0.083371 0.45289 -1.000568
2010-06-30 13:24:23 51°25.053 2°32.061 22.7807 0.076711 0.415465 -1.000568
2010-06-30 13:25:23 51°25.078 2°32.07 22.7712 0.07848 0.425376 -1.000568
2010-06-30 13:26:23 51°25.1 2°32.068 22.7798 0.07848 0.425383 -1.000568
2010-06-30 13:27:24 51°25.117 2°32.057 22.7761 0.080561 0.437074 -1.035392
2010-06-30 13:28:23 51°25.128 2°32.055 22.7664 0.075358 0.407884 -1.000568
2010-06-30 13:29:23 51°25.131 2°32.052 22.7735 0.080457 0.436489 -1.035392
2010-06-30 13:30:23 51°25.106 2°32.057 22.762 0.077127 0.417771 -1.000568
2010-06-30 13:31:23 51°25.058 2°32.058 22.7726 0.087845 0.478065 -1.000568
2010-06-30 13:32:23 51°25.009 2°32.043 22.77 0.073173 0.395644 -1.000568
2010-06-30 13:33:23 51°24.988 2°32.043 22.7745 0.075879 0.410757 -1.000568
2010-06-30 13:34:24 51°24.99 2°32.07 22.7801 0.073382 0.396795 -1.000568
2010-06-30 13:35:23 51°24.997 2°32.104 22.7774 0.076503 0.414253 -1.035392
2010-06-30 13:36:23 51°25.01 2°32.143 22.776 0.073277 0.396213 -1.035392
2010-06-30 13:37:23 51°25.022 2°32.182 22.7767 0.078064 0.423021 -1.035392
2010-06-30 13:38:23 51°25.035 2°32.221 22.7789 0.079208 0.429443 -1.000568
2010-06-30 13:39:23 51°25.049 2°32.261 22.7769 0.075983 0.411353 -1.035392
2010-06-30 13:40:23 51°25.063 2°32.3 22.7731 0.07359 0.39797 -1.000568
2010-06-30 13:41:23 51°25.077 2°32.341 22.779 0.07411 0.400879 -1.035392
2010-06-30 13:42:23 51°25.091 2°32.382 22.7707 0.079729 0.432357 -1.035392
2010-06-30 13:43:23 51°25.106 2°32.423 22.7732 0.072549 0.392144 -1.000568
2010-06-30 13:44:23 51°25.121 2°32.466 22.7768 0.088054 0.479255 -1.000568
2010-06-30 13:45:23 51°25.137 2°32.508 22.778 0.08618 0.468699 -1.000568
2010-06-30 13:46:23 51°25.154 2°32.551 22.7783 0.078792 0.427141 -1.035392
2010-06-30 13:47:23 51°25.171 2°32.595 22.7793 0.080977 0.439413 -1.000568
2010-06-30 13:48:23 51°25.185 2°32.642 22.7701 0.068179 0.36782 -1.035392
2010-06-30 13:49:23 51°25.129 2°32.735 22.7734 0.075254 0.407334 -1.000568
2010-06-30 13:50:23 51°24.988 2°32.845 22.7591 0.079729 0.432426 -1.000568
2010-06-30 13:51:23 51°24.791 2°32.936 22.7617 0.081394 0.441788 -1.000568
2010-06-30 13:52:23 51°24.583 2°33.03 22.7549 0.083475 0.453497 -1.000568
2010-06-30 13:53:23 51°24.374 2°33.127 22.7648 0.08285 0.450011 -1.035392
2010-06-30 13:54:23 51°24.164 2°33.223 22.7768 0.080353 0.435981 -1.000568
2010-06-30 13:55:23 51°23.955 2°33.317 22.7643 0.072653 0.392875 -1.035392
2010-06-30 13:56:23 51°23.745 2°33.359 22.7764 0.090343 0.492358 -1.000568
2010-06-30 13:57:23 51°23.553 2°33.241 22.7791 0.08618 0.468894 -1.000568
2010-06-30 13:58:23 51°23.381 2°33.061 22.7835 0.084515 0.459549 -1.035392
2010-06-30 13:59:23 51°23.21 2°32.876 22.7899 0.081498 0.442627 -1.000568
2010-06-30 14:00:23 51°23.039 2°32.693 22.7888 0.08514 0.463187 -1.035392
2010-06-30 14:01:23 51°22.871 2°32.509 22.7867 0.081394 0.442133 -1.035392
2010-06-30 14:02:23 51°22.705 2°32.33 22.7768 0.071093 0.384415 -1.000568
2010-06-30 14:03:23 51°22.519 2°32.207 22.7806 0.07515 0.407184 -1.000568
2010-06-30 14:04:23 51°22.316 2°32.135 22.7877 0.092008 0.502232 -1.000568
2010-06-30 14:05:24 51°22.107 2°32.083 22.7862 0.089406 0.487575 -1.000568
2010-06-30 14:06:23 51°21.898 2°32.076 22.7959 0.079417 0.431291 -1.000568
2010-06-30 14:07:23 51°21.685 2°32.122 22.7923 0.079313 0.430754 -1.000568
2010-06-30 14:08:23 51°21.473 2°32.2 22.8258 0.082018 0.446066 -1.000568
2010-06-30 14:09:23 51°21.292 2°32.404 22.8173 0.071613 0.387697 -1.035392
2010-06-30 14:10:23 51°21.188 2°32.739 22.8375 0.089511 0.488469 -1.000568
2010-06-30 14:11:23 51°21.123 2°33.105 22.8181 0.098148 0.53754 -1.070216
2010-06-30 14:12:23 51°21.037 2°33.461 22.8414 0.079208 0.430381 -1.000568
2010-06-30 14:13:23 51°20.928 2°33.799 22.8229 0.092841 0.507431 -1.000568
2010-06-30 14:14:23 51°20.82 2°34.14 22.8194 0.081602 0.443891 -1.000568
2010-06-30 14:15:23 51°20.718 2°34.488 22.8295 0.079729 0.433364 -1.035392
2010-06-30 14:16:23 51°20.618 2°34.831 22.8123 0.073902 0.400676 -1.035392
2010-06-30 14:17:23 51°20.518 2°35.176 22.818 0.070156 0.379741 -1.000568
2010-06-30 14:18:23 51°20.418 2°35.522 22.7991 0.074422 0.403618 -1.000568
2010-06-30 14:19:23 51°20.317 2°35.871 22.8346 0.071093 0.384971 -1.000568
2010-06-30 14:20:23 51°20.211 2°36.219 22.837 0.072341 0.391946 -1.035392
2010-06-30 14:21:24 51°20.105 2°36.573 22.8315 0.088054 0.480413 -1.035392
2010-06-30 14:22:23 51°20.003 2°36.917 22.8624 0.080249 0.436348 -1.000568
2010-06-30 14:23:23 51°19.898 2°37.264 22.8358 0.072861 0.394827 -1.035392
2010-06-30 14:24:23 51°19.796 2°37.614 22.8334 0.079937 0.434528 -1.000568
2010-06-30 14:25:23 51°19.69 2°37.963 22.8523 0.067971 0.367458 -1.000568
2010-06-30 14:26:23 51°19.584 2°38.308 22.8325 0.07515 0.407593 -1.000568
2010-06-30 14:27:23 51°19.477 2°38.653 22.8451 0.073902 0.400567 -1.035392
2010-06-30 14:28:23 51°19.373 2°39.005 22.8488 0.077648 0.421572 -1.035392
2010-06-30 14:29:23 51°19.271 2°39.348 22.8685 0.079521 0.432082 -1.035392
2010-06-30 14:30:23 51°19.171 2°39.689 22.8477 0.078168 0.424456 -1.035392
2010-06-30 14:31:23 51°19.074 2°40.032 22.8556 0.073798 0.399902 -1.035392
2010-06-30 14:32:23 51°18.973 2°40.376 22.871 0.08129 0.441949 -1.035392
2010-06-30 14:33:23 51°18.868 2°40.723 22.873 0.079729 0.433136 -1.000568
2010-06-30 14:34:24 51°18.752 2°41.07 22.8853 0.083579 0.454772 -1.035392
2010-06-30 14:35:23 51°18.633 2°41.399 22.8906 0.081186 0.441236 -1.000568
2010-06-30 14:36:23 51°18.515 2°41.73 22.8746 0.082122 0.446453 -1.035392
2010-06-30 14:37:23 51°18.373 2°42.024 22.8867 0.08462 0.460473 -1.035392
2010-06-30 14:38:23 51°18.205 2°42.267 22.8851 0.082018 0.445746 -1.000568
2010-06-30 14:39:24 51°18.03 2°42.494 22.8993 0.081394 0.442168 -1.035392
2010-06-30 14:40:23 51°17.866 2°42.731 22.8791 0.067971 0.366975 -1.000568
2010-06-30 14:41:24 51°17.709 2°43.005 22.8951 0.069532 0.375627 -1.035392
2010-06-30 14:42:24 51°17.575 2°43.309 22.9019 0.076503 0.414543 -1.000568
2010-06-30 14:43:24 51°17.436 2°43.62 22.9091 0.081186 0.440779 -1.035392
2010-06-30 14:44:23 51°17.297 2°43.92 22.9187 0.084724 0.460692 -1.000568
2010-06-30 14:45:23 51°17.154 2°44.219 22.9163 0.087013 0.473562 -1.035392
2010-06-30 14:46:23 51°17.011 2°44.509 22.923 0.075359 0.408013 -1.000568
2010-06-30 14:47:24 51°16.872 2°44.81 22.9039 0.074214 0.401595 -1.000568
2010-06-30 14:48:23 51°16.747 2°45.11 22.9438 0.081602 0.442979 -1.000568
2010-06-30 14:49:23 51°16.62 2°45.418 22.9268 0.078688 0.426591 -1.035392
2010-06-30 14:50:23 51°16.484 2°45.711 22.9511 0.072965 0.394519 -1.000568
2010-06-30 14:51:23 51°16.349 2°46.001 22.9658 0.071821 0.388114 -1.035392
2010-06-30 14:52:23 51°16.222 2°46.306 22.9271 0.079104 0.428832 -1.000568
2010-06-30 14:53:23 51°16.111 2°46.64 22.9575 0.076503 0.414247 -1.000568
2010-06-30 14:54:24 51°16.01 2°47.001 22.9399 0.086493 0.470333 -0.965744
2010-06-30 14:55:23 51°15.921 2°47.358 22.958 0.072861 0.393806 -1.000568
2010-06-30 14:56:24 51°15.855 2°47.749 22.9833 0.072965 0.394375 -1.000568
2010-06-30 14:57:24 51°15.825 2°48.141 22.9635 0.072965 0.394325 -1.035392
2010-06-30 14:58:24 51°15.803 2°48.537 22.9707 0.078896 0.427494 -1.035392
2010-06-30 14:59:24 51°15.779 2°48.931 22.9976 0.080353 0.435662 -1.000568
2010-06-30 15:00:24 51°15.754 2°49.316 22.9893 0.075463 0.408233 -1.000568
2010-06-30 15:01:24 51°15.732 2°49.703 23.0026 0.077023 0.416936 -1.035392
2010-06-30 15:02:24 51°15.708 2°50.092 23.0013 0.076295 0.412806 -1.000568
2010-06-30 15:03:26 51°15.682 2°50.505 22.9979 0.08129 0.440768 -1.000568
2010-06-30 15:04:27 51°15.659 2°50.912 23.015 0.078272 0.423825 -0.965744
2010-06-30 15:05:27 51°15.64 2°51.312 23.0108 0.084099 0.456497 -1.035392
2010-06-30 15:06:27 51°15.629 2°51.6 23.0371 0.082226 0.445937 -1.035392
2010-06-30 15:07:27 51°15.629 2°51.813 23.0425 0.079417 0.430132 -1.000568
2010-06-30 15:08:27 51°15.631 2°52.002 23.0556 0.080665 0.437088 -1.000568
2010-06-30 15:09:27 51°15.635 2°52.185 23.0553 0.080249 0.434712 -1.035392
2010-06-30 15:10:27 51°15.637 2°52.364 23.0622 0.080769 0.437582 -1.035392
2010-06-30 15:11:27 51°15.639 2°52.539 23.07 0.079937 0.432878 -1.000568
2010-06-30 15:12:27 51°15.641 2°52.715 23.0812 0.078584 0.425243 -1.035392
2010-06-30 15:13:27 51°15.644 2°52.889 23.0796 0.07796 0.421714 -0.965744
2010-06-30 15:14:27 51°15.647 2°53.064 23.0963 0.081498 0.441494 -1.000568
2010-06-30 15:15:27 51°15.651 2°53.239 23.1042 0.079833 0.432117 -1.035392
2010-06-30 15:16:27 51°15.655 2°53.414 23.1073 0.078896 0.426829 -1.000568
2010-06-30 15:17:27 51°15.657 2°53.587 23.1097 0.079417 0.429689 -1.000568
2010-06-30 15:18:27 51°15.657 2°53.749 23.121 0.08181 0.443063 -1.000568
2010-06-30 15:19:27 51°15.66 2°53.896 23.1316 0.08285 0.448853 -1.000568
2010-06-30 15:20:27 51°15.643 2°54.093 23.0834 0.076087 0.410892 -1.000568
2010-06-30 15:21:27 51°15.5 2°54.288 23.1118 0.079208 0.428313 -0.965744
2010-06-30 15:22:27 51°15.318 2°54.439 23.1165 0.072861 0.392792 -1.000568
2010-06-30 15:23:27 51°15.134 2°54.595 23.1391 0.083579 0.452634 -1.000568
2010-06-30 15:24:27 51°14.947 2°54.759 23.1364 0.078272 0.422858 -1.000568
2010-06-30 15:25:27 51°14.753 2°54.897 23.1488 0.077856 0.420478 -1.000568
2010-06-30 15:26:27 51°14.558 2°55.04 23.1478 0.083995 0.454811 -1.035392
2010-06-30 15:27:27 51°14.369 2°55.195 23.1647 0.079104 0.427365 -1.000568
2010-06-30 15:28:27 51°14.224 2°55.338 23.1691 0.084203 0.4559 -1.000568
2010-06-30 15:29:27 51°14.111 2°55.426 23.1806 0.080665 0.436043 -1.000568
2010-06-30 15:30:27 51°14.005 2°55.505 23.1893 0.079312 0.428427 -1.035392
2010-06-30 15:31:27 51°13.898 2°55.58 23.1897 0.080041 0.432453 -1.035392
2010-06-30 15:32:27 51°13.804 2°55.647 23.192 0.081081 0.438248 -1.035392
2010-06-30 15:33:27 51°13.746 2°55.732 23.2154 0.079521 0.429455 -1.000568
2010-06-30 15:34:27 51°13.702 2°55.829 23.1878 0.08129 0.439302 -1.035392
2010-06-30 15:35:27 51°13.673 2°55.911 23.2335 0.079729 0.430536 -1.000568
2010-06-30 15:36:27 51°13.664 2°55.956 23.2112 0.082538 0.446209 -0.965744